sensor_id;sensor_type;location;lat;lon;timestamp;pressure;altitude;pressure_sealevel;temperature
37414;BMP280;23279;46.472;30.760;2023-06-10T00:02:26;77279.06;;;-146.33
37414;BMP280;23279;46.472;30.760;2023-06-10T00:04:52;77283.13;;;-146.33
37414;BMP280;23279;46.472;30.760;2023-06-10T00:07:18;77287.19;;;-146.33
37414;BMP280;23279;46.472;30.760;2023-06-10T00:09:43;77287.19;;;-146.33
37414;BMP280;23279;46.472;30.760;2023-06-10T00:12:09;77289.22;;;-146.33
37414;BMP280;23279;46.472;30.760;2023-06-10T00:14:37;77291.25;;;-146.33
37414;BMP280;23279;46.472;30.760;2023-06-10T00:17:02;77281.09;;;-146.33
37414;BMP280;23279;46.472;30.760;2023-06-10T00:19:28;77289.22;;;-146.33
37414;BMP280;23279;46.472;30.760;2023-06-10T00:21:55;77287.19;;;-146.33
37414;BMP280;23279;46.472;30.760;2023-06-10T00:24:21;77295.34;;;-146.33
37414;BMP280;23279;46.472;30.760;2023-06-10T00:26:47;77293.28;;;-146.33
37414;BMP280;23279;46.472;30.760;2023-06-10T00:29:12;77315.69;;;-146.33
37414;BMP280;23279;46.472;30.760;2023-06-10T00:31:39;77307.53;;;-146.33
37414;BMP280;23279;46.472;30.760;2023-06-10T00:34:04;77311.59;;;-146.33
37414;BMP280;23279;46.472;30.760;2023-06-10T00:36:30;77315.69;;;-146.33
37414;BMP280;23279;46.472;30.760;2023-06-10T00:38:56;77307.53;;;-146.33
37414;BMP280;23279;46.472;30.760;2023-06-10T00:41:22;77305.50;;;-146.33
37414;BMP280;23279;46.472;30.760;2023-06-10T00:43:47;77329.91;;;-146.33
37414;BMP280;23279;46.472;30.760;2023-06-10T00:46:13;77321.78;;;-146.33
37414;BMP280;23279;46.472;30.760;2023-06-10T00:48:40;77333.97;;;-146.33
37414;BMP280;23279;46.472;30.760;2023-06-10T00:51:06;77338.06;;;-146.33
37414;BMP280;23279;46.472;30.760;2023-06-10T00:53:35;77336.03;;;-146.33
37414;BMP280;23279;46.472;30.760;2023-06-10T00:56:01;77331.94;;;-146.33
37414;BMP280;23279;46.472;30.760;2023-06-10T00:58:27;77340.09;;;-146.33
37414;BMP280;23279;46.472;30.760;2023-06-10T01:00:53;77344.16;;;-146.33
37414;BMP280;23279;46.472;30.760;2023-06-10T01:03:18;77344.16;;;-146.33
37414;BMP280;23279;46.472;30.760;2023-06-10T01:05:50;77362.47;;;-146.33
37414;BMP280;23279;46.472;30.760;2023-06-10T01:10:57;77354.34;;;-146.33
37414;BMP280;23279;46.472;30.760;2023-06-10T01:13:25;77348.22;;;-146.33
37414;BMP280;23279;46.472;30.760;2023-06-10T01:15:56;77350.25;;;-146.33
37414;BMP280;23279;46.472;30.760;2023-06-10T01:18:22;77352.28;;;-146.33
37414;BMP280;23279;46.472;30.760;2023-06-10T01:20:47;77358.41;;;-146.33
37414;BMP280;23279;46.472;30.760;2023-06-10T01:23:14;77364.50;;;-146.33
37414;BMP280;23279;46.472;30.760;2023-06-10T01:25:43;77362.47;;;-146.33
37414;BMP280;23279;46.472;30.760;2023-06-10T01:28:36;77356.38;;;-146.33
37414;BMP280;23279;46.472;30.760;2023-06-10T01:33:37;77370.59;;;-146.33
37414;BMP280;23279;46.472;30.760;2023-06-10T01:36:03;77384.84;;;-146.33
37414;BMP280;23279;46.472;30.760;2023-06-10T01:38:37;77382.81;;;-146.33
37414;BMP280;23279;46.472;30.760;2023-06-10T01:41:04;77384.84;;;-146.33
37414;BMP280;23279;46.472;30.760;2023-06-10T01:43:33;77376.72;;;-146.33
37414;BMP280;23279;46.472;30.760;2023-06-10T01:45:58;77378.75;;;-146.33
37414;BMP280;23279;46.472;30.760;2023-06-10T01:48:24;77382.81;;;-146.33
37414;BMP280;23279;46.472;30.760;2023-06-10T01:50:49;77392.97;;;-146.33
37414;BMP280;23279;46.472;30.760;2023-06-10T01:53:15;77392.97;;;-146.33
37414;BMP280;23279;46.472;30.760;2023-06-10T01:55:40;77405.19;;;-146.33
37414;BMP280;23279;46.472;30.760;2023-06-10T01:58:05;77409.25;;;-146.33
37414;BMP280;23279;46.472;30.760;2023-06-10T02:00:31;77411.28;;;-146.33
37414;BMP280;23279;46.472;30.760;2023-06-10T02:02:56;77419.44;;;-146.33
37414;BMP280;23279;46.472;30.760;2023-06-10T02:05:21;77435.72;;;-146.33
37414;BMP280;23279;46.472;30.760;2023-06-10T02:07:48;77437.75;;;-146.33
37414;BMP280;23279;46.472;30.760;2023-06-10T02:10:13;77454.03;;;-146.33
37414;BMP280;23279;46.472;30.760;2023-06-10T02:12:38;77445.88;;;-146.33
37414;BMP280;23279;46.472;30.760;2023-06-10T02:15:04;77454.03;;;-146.33
37414;BMP280;23279;46.472;30.760;2023-06-10T02:17:30;77433.69;;;-146.33
37414;BMP280;23279;46.472;30.760;2023-06-10T02:19:55;77431.63;;;-146.33
37414;BMP280;23279;46.472;30.760;2023-06-10T02:22:23;77433.69;;;-146.33
37414;BMP280;23279;46.472;30.760;2023-06-10T02:24:48;77435.72;;;-146.33
37414;BMP280;23279;46.472;30.760;2023-06-10T02:27:18;77425.53;;;-146.33
37414;BMP280;23279;46.472;30.760;2023-06-10T02:29:43;77429.59;;;-146.33
37414;BMP280;23279;46.472;30.760;2023-06-10T02:32:09;77421.47;;;-146.33
37414;BMP280;23279;46.472;30.760;2023-06-10T02:34:35;77425.53;;;-146.33
37414;BMP280;23279;46.472;30.760;2023-06-10T02:37:01;77425.53;;;-146.33
37414;BMP280;23279;46.472;30.760;2023-06-10T02:39:27;77421.47;;;-146.33
37414;BMP280;23279;46.472;30.760;2023-06-10T02:41:53;77427.56;;;-146.33
37414;BMP280;23279;46.472;30.760;2023-06-10T02:44:18;77415.38;;;-146.33
37414;BMP280;23279;46.472;30.760;2023-06-10T02:46:44;77429.59;;;-146.33
37414;BMP280;23279;46.472;30.760;2023-06-10T02:49:09;77429.59;;;-146.33
37414;BMP280;23279;46.472;30.760;2023-06-10T02:51:35;77431.63;;;-146.33
37414;BMP280;23279;46.472;30.760;2023-06-10T02:54:01;77427.56;;;-146.33
37414;BMP280;23279;46.472;30.760;2023-06-10T02:56:27;77441.81;;;-146.33
37414;BMP280;23279;46.472;30.760;2023-06-10T02:58:52;77433.69;;;-146.33
37414;BMP280;23279;46.472;30.760;2023-06-10T03:01:18;77425.53;;;-146.33
37414;BMP280;23279;46.472;30.760;2023-06-10T03:03:44;77425.53;;;-146.33
37414;BMP280;23279;46.472;30.760;2023-06-10T03:06:11;77423.50;;;-146.33
37414;BMP280;23279;46.472;30.760;2023-06-10T03:08:37;77429.59;;;-146.33
37414;BMP280;23279;46.472;30.760;2023-06-10T03:11:03;77437.75;;;-146.33
37414;BMP280;23279;46.472;30.760;2023-06-10T03:13:29;77431.63;;;-146.33
37414;BMP280;23279;46.472;30.760;2023-06-10T03:15:54;77437.75;;;-146.33
37414;BMP280;23279;46.472;30.760;2023-06-10T03:18:20;77417.41;;;-146.33
37414;BMP280;23279;46.472;30.760;2023-06-10T03:20:45;77435.72;;;-146.33
37414;BMP280;23279;46.472;30.760;2023-06-10T03:23:11;77427.56;;;-146.33
37414;BMP280;23279;46.472;30.760;2023-06-10T03:25:36;77421.47;;;-146.33
37414;BMP280;23279;46.472;30.760;2023-06-10T03:28:02;77429.59;;;-146.33
37414;BMP280;23279;46.472;30.760;2023-06-10T03:30:28;77431.63;;;-146.33
37414;BMP280;23279;46.472;30.760;2023-06-10T03:32:53;77433.69;;;-146.33
37414;BMP280;23279;46.472;30.760;2023-06-10T03:35:19;77445.88;;;-146.33
37414;BMP280;23279;46.472;30.760;2023-06-10T03:37:45;77435.72;;;-146.33
37414;BMP280;23279;46.472;30.760;2023-06-10T03:40:10;77437.75;;;-146.33
37414;BMP280;23279;46.472;30.760;2023-06-10T03:42:36;77437.75;;;-146.33
37414;BMP280;23279;46.472;30.760;2023-06-10T03:45:02;77433.69;;;-146.33
37414;BMP280;23279;46.472;30.760;2023-06-10T03:47:38;77429.59;;;-146.33
37414;BMP280;23279;46.472;30.760;2023-06-10T03:50:07;77441.81;;;-146.33
37414;BMP280;23279;46.472;30.760;2023-06-10T03:52:33;77441.81;;;-146.33
37414;BMP280;23279;46.472;30.760;2023-06-10T03:54:59;77437.75;;;-146.33
37414;BMP280;23279;46.472;30.760;2023-06-10T03:57:25;77429.59;;;-146.33
37414;BMP280;23279;46.472;30.760;2023-06-10T03:59:50;77423.50;;;-146.33
37414;BMP280;23279;46.472;30.760;2023-06-10T04:02:16;77409.25;;;-146.33
37414;BMP280;23279;46.472;30.760;2023-06-10T04:04:41;77409.25;;;-146.33
37414;BMP280;23279;46.472;30.760;2023-06-10T04:07:07;77405.19;;;-146.33
37414;BMP280;23279;46.472;30.760;2023-06-10T04:09:34;77390.94;;;-146.33
37414;BMP280;23279;46.472;30.760;2023-06-10T04:12:01;77392.97;;;-146.33
37414;BMP280;23279;46.472;30.760;2023-06-10T04:14:26;77384.84;;;-146.33
37414;BMP280;23279;46.472;30.760;2023-06-10T04:16:52;77362.47;;;-146.33
37414;BMP280;23279;46.472;30.760;2023-06-10T04:19:18;77346.19;;;-146.33
37414;BMP280;23279;46.472;30.760;2023-06-10T04:21:43;77331.94;;;-146.33
37414;BMP280;23279;46.472;30.760;2023-06-10T04:24:09;77307.53;;;-146.33
37414;BMP280;23279;46.472;30.760;2023-06-10T04:26:37;77291.25;;;-146.33
37414;BMP280;23279;46.472;30.760;2023-06-10T04:29:03;77270.91;;;-146.33
37414;BMP280;23279;46.472;30.760;2023-06-10T04:31:28;77254.66;;;-146.33
37414;BMP280;23279;46.472;30.760;2023-06-10T04:33:54;77238.38;;;-146.33
37414;BMP280;23279;46.472;30.760;2023-06-10T04:36:19;77238.38;;;-146.33
37414;BMP280;23279;46.472;30.760;2023-06-10T04:38:45;77238.38;;;-146.33
37414;BMP280;23279;46.472;30.760;2023-06-10T04:41:11;77234.31;;;-146.33
37414;BMP280;23279;46.472;30.760;2023-06-10T04:43:36;77232.28;;;-146.33
37414;BMP280;23279;46.472;30.760;2023-06-10T04:46:02;77236.34;;;-146.33
37414;BMP280;23279;46.472;30.760;2023-06-10T04:48:27;77222.09;;;-146.33
37414;BMP280;23279;46.472;30.760;2023-06-10T04:50:53;77209.88;;;-146.33
37414;BMP280;23279;46.472;30.760;2023-06-10T04:53:18;77213.97;;;-146.33
37414;BMP280;23279;46.472;30.760;2023-06-10T04:55:43;77193.63;;;-146.33
37414;BMP280;23279;46.472;30.760;2023-06-10T04:58:09;77187.50;;;-146.33
37414;BMP280;23279;46.472;30.760;2023-06-10T05:00:35;77161.06;;;-146.33
37414;BMP280;23279;46.472;30.760;2023-06-10T05:03:00;77185.47;;;-146.33
37414;BMP280;23279;46.472;30.760;2023-06-10T05:05:26;77152.94;;;-146.33
37414;BMP280;23279;46.472;30.760;2023-06-10T05:07:51;77154.97;;;-146.33
37414;BMP280;23279;46.472;30.760;2023-06-10T05:10:16;77167.16;;;-146.33
37414;BMP280;23279;46.472;30.760;2023-06-10T05:12:42;77161.06;;;-146.33
37414;BMP280;23279;46.472;30.760;2023-06-10T05:15:08;77142.75;;;-146.33
37414;BMP280;23279;46.472;30.760;2023-06-10T05:17:34;77132.59;;;-146.33
37414;BMP280;23279;46.472;30.760;2023-06-10T05:20:02;77140.72;;;-146.33
37414;BMP280;23279;46.472;30.760;2023-06-10T05:22:28;77124.44;;;-146.33
37414;BMP280;23279;46.472;30.760;2023-06-10T05:24:53;77104.09;;;-146.33
37414;BMP280;23279;46.472;30.760;2023-06-10T05:27:19;77102.06;;;-146.33
37414;BMP280;23279;46.472;30.760;2023-06-10T05:29:44;77091.91;;;-146.33
37414;BMP280;23279;46.472;30.760;2023-06-10T05:32:11;77095.97;;;-146.33
37414;BMP280;23279;46.472;30.760;2023-06-10T05:34:36;77087.84;;;-146.33
37414;BMP280;23279;46.472;30.760;2023-06-10T05:37:02;77071.56;;;-146.33
37414;BMP280;23279;46.472;30.760;2023-06-10T05:39:28;77055.28;;;-146.33
37414;BMP280;23279;46.472;30.760;2023-06-10T05:41:53;77065.44;;;-146.33
37414;BMP280;23279;46.472;30.760;2023-06-10T05:44:19;77045.13;;;-146.33
37414;BMP280;23279;46.472;30.760;2023-06-10T05:46:44;77043.06;;;-146.33
37414;BMP280;23279;46.472;30.760;2023-06-10T05:49:10;77059.34;;;-146.33
37414;BMP280;23279;46.472;30.760;2023-06-10T05:51:35;77047.16;;;-146.33
37414;BMP280;23279;46.472;30.760;2023-06-10T05:54:02;77024.78;;;-146.33
37414;BMP280;23279;46.472;30.760;2023-06-10T05:56:27;77028.84;;;-146.33
37414;BMP280;23279;46.472;30.760;2023-06-10T05:58:53;77012.56;;;-146.33
37414;BMP280;23279;46.472;30.760;2023-06-10T06:01:18;77002.41;;;-146.33
37414;BMP280;23279;46.472;30.760;2023-06-10T06:03:44;76988.16;;;-146.33
37414;BMP280;23279;46.472;30.760;2023-06-10T06:06:09;76996.28;;;-146.33
37414;BMP280;23279;46.472;30.760;2023-06-10T06:08:35;76996.28;;;-146.33
37414;BMP280;23279;46.472;30.760;2023-06-10T06:11:00;76982.06;;;-146.33
37414;BMP280;23279;46.472;30.760;2023-06-10T06:13:25;76990.19;;;-146.33
37414;BMP280;23279;46.472;30.760;2023-06-10T06:15:51;76982.06;;;-146.33
37414;BMP280;23279;46.472;30.760;2023-06-10T06:18:16;76986.13;;;-146.33
37414;BMP280;23279;46.472;30.760;2023-06-10T06:20:43;76980.03;;;-146.33
37414;BMP280;23279;46.472;30.760;2023-06-10T06:23:09;76998.31;;;-146.33
37414;BMP280;23279;46.472;30.760;2023-06-10T06:25:36;76988.16;;;-146.33
37414;BMP280;23279;46.472;30.760;2023-06-10T06:28:05;76973.91;;;-146.33
37414;BMP280;23279;46.472;30.760;2023-06-10T06:30:31;76957.66;;;-146.33
37414;BMP280;23279;46.472;30.760;2023-06-10T06:32:56;76967.81;;;-146.33
37414;BMP280;23279;46.472;30.760;2023-06-10T06:35:21;76959.69;;;-146.33
37414;BMP280;23279;46.472;30.760;2023-06-10T06:37:47;76961.72;;;-146.33
37414;BMP280;23279;46.472;30.760;2023-06-10T06:40:12;76933.22;;;-146.33
37414;BMP280;23279;46.472;30.760;2023-06-10T06:42:38;76933.22;;;-146.33
37414;BMP280;23279;46.472;30.760;2023-06-10T06:45:03;76927.13;;;-146.33
37414;BMP280;23279;46.472;30.760;2023-06-10T06:47:29;76925.09;;;-146.33
37414;BMP280;23279;46.472;30.760;2023-06-10T06:49:59;76910.84;;;-146.33
37414;BMP280;23279;46.472;30.760;2023-06-10T06:52:25;76896.63;;;-146.33
37414;BMP280;23279;46.472;30.760;2023-06-10T06:54:50;76908.81;;;-146.33
37414;BMP280;23279;46.472;30.760;2023-06-10T06:57:16;76890.50;;;-146.33
37414;BMP280;23279;46.472;30.760;2023-06-10T06:59:41;76902.72;;;-146.33
37414;BMP280;23279;46.472;30.760;2023-06-10T07:02:07;76892.53;;;-146.33
37414;BMP280;23279;46.472;30.760;2023-06-10T07:04:32;76896.63;;;-146.33
37414;BMP280;23279;46.472;30.760;2023-06-10T07:06:57;76912.88;;;-146.33
37414;BMP280;23279;46.472;30.760;2023-06-10T07:09:23;76898.66;;;-146.33
37414;BMP280;23279;46.472;30.760;2023-06-10T07:11:48;76892.53;;;-146.33
37414;BMP280;23279;46.472;30.760;2023-06-10T07:14:14;76870.19;;;-146.33
37414;BMP280;23279;46.472;30.760;2023-06-10T07:16:39;76841.69;;;-146.33
37414;BMP280;23279;46.472;30.760;2023-06-10T07:19:04;76847.81;;;-146.33
37414;BMP280;23279;46.472;30.760;2023-06-10T07:21:30;76868.13;;;-146.33
37414;BMP280;23279;46.472;30.760;2023-06-10T07:23:56;76851.88;;;-146.33
37414;BMP280;23279;46.472;30.760;2023-06-10T07:26:24;76847.81;;;-146.33
37414;BMP280;23279;46.472;30.760;2023-06-10T07:28:50;76847.81;;;-146.33
37414;BMP280;23279;46.472;30.760;2023-06-10T07:31:16;76833.56;;;-146.33
37414;BMP280;23279;46.472;30.760;2023-06-10T07:33:41;76811.19;;;-146.33
37414;BMP280;23279;46.472;30.760;2023-06-10T07:36:09;76798.97;;;-146.33
37414;BMP280;23279;46.472;30.760;2023-06-10T07:38:34;76815.25;;;-146.33
37414;BMP280;23279;46.472;30.760;2023-06-10T07:41:00;76798.97;;;-146.33
37414;BMP280;23279;46.472;30.760;2023-06-10T07:43:25;76770.50;;;-146.33
37414;BMP280;23279;46.472;30.760;2023-06-10T07:45:51;76754.22;;;-146.33
37414;BMP280;23279;46.472;30.760;2023-06-10T07:48:16;76764.41;;;-146.33
37414;BMP280;23279;46.472;30.760;2023-06-10T07:50:42;76752.19;;;-146.33
37414;BMP280;23279;46.472;30.760;2023-06-10T07:53:07;76748.13;;;-146.33
37414;BMP280;23279;46.472;30.760;2023-06-10T07:55:33;76731.84;;;-146.33
37414;BMP280;23279;46.472;30.760;2023-06-10T07:57:58;76713.56;;;-146.33
37414;BMP280;23279;46.472;30.760;2023-06-10T08:00:24;76701.34;;;-146.33
37414;BMP280;23279;46.472;30.760;2023-06-10T08:02:49;76687.13;;;-146.33
37414;BMP280;23279;46.472;30.760;2023-06-10T08:05:15;76689.16;;;-146.33
37414;BMP280;23279;46.472;30.760;2023-06-10T08:07:41;76681.00;;;-146.33
37414;BMP280;23279;46.472;30.760;2023-06-10T08:10:07;76670.84;;;-146.33
37414;BMP280;23279;46.472;30.760;2023-06-10T08:12:33;76666.78;;;-146.33
37414;BMP280;23279;46.472;30.760;2023-06-10T08:14:59;76611.84;;;-146.33
37414;BMP280;23279;46.472;30.760;2023-06-10T08:17:25;76607.78;;;-146.33
37414;BMP280;23279;46.472;30.760;2023-06-10T08:19:50;76603.72;;;-146.33
37414;BMP280;23279;46.472;30.760;2023-06-10T08:22:16;76611.84;;;-146.33
37414;BMP280;23279;46.472;30.760;2023-06-10T08:24:41;76603.72;;;-146.33
37414;BMP280;23279;46.472;30.760;2023-06-10T08:27:07;76611.84;;;-146.33
37414;BMP280;23279;46.472;30.760;2023-06-10T08:29:32;76599.66;;;-146.33
37414;BMP280;23279;46.472;30.760;2023-06-10T08:31:58;76587.44;;;-146.33
37414;BMP280;23279;46.472;30.760;2023-06-10T08:34:24;76567.09;;;-146.33
37414;BMP280;23279;46.472;30.760;2023-06-10T08:36:49;76538.63;;;-146.33
37414;BMP280;23279;46.472;30.760;2023-06-10T08:39:23;76514.22;;;-146.33
37414;BMP280;23279;46.472;30.760;2023-06-10T08:42:22;76524.41;;;-146.33
37414;BMP280;23279;46.472;30.760;2023-06-10T08:44:53;76526.44;;;-146.33
37414;BMP280;23279;46.472;30.760;2023-06-10T08:47:22;76516.25;;;-146.33
37414;BMP280;23279;46.472;30.760;2023-06-10T08:49:48;76506.09;;;-146.33
37414;BMP280;23279;46.472;30.760;2023-06-10T08:52:16;76493.91;;;-146.33
37414;BMP280;23279;46.472;30.760;2023-06-10T08:54:48;76508.13;;;-146.33
37414;BMP280;23279;46.472;30.760;2023-06-10T08:57:14;76485.75;;;-146.33
37414;BMP280;23279;46.472;30.760;2023-06-10T08:59:41;76475.59;;;-146.33
37414;BMP280;23279;46.472;30.760;2023-06-10T09:02:07;76461.34;;;-146.33
37414;BMP280;23279;46.472;30.760;2023-06-10T09:04:34;76436.94;;;-146.33
37414;BMP280;23279;46.472;30.760;2023-06-10T09:07:02;76432.88;;;-146.33
37414;BMP280;23279;46.472;30.760;2023-06-10T09:09:29;76443.03;;;-146.33
37414;BMP280;23279;46.472;30.760;2023-06-10T09:11:56;76449.16;;;-146.33
37414;BMP280;23279;46.472;30.760;2023-06-10T09:14:21;76426.78;;;-146.33
37414;BMP280;23279;46.472;30.760;2023-06-10T09:16:48;76428.81;;;-146.33
37414;BMP280;23279;46.472;30.760;2023-06-10T09:19:14;76418.63;;;-146.33
37414;BMP280;23279;46.472;30.760;2023-06-10T09:21:40;76402.38;;;-146.33
37414;BMP280;23279;46.472;30.760;2023-06-10T09:24:06;76412.53;;;-146.33
37414;BMP280;23279;46.472;30.760;2023-06-10T09:26:31;76426.78;;;-146.33
37414;BMP280;23279;46.472;30.760;2023-06-10T09:29:07;76400.34;;;-146.33
37414;BMP280;23279;46.472;30.760;2023-06-10T09:31:38;76371.88;;;-146.33
37414;BMP280;23279;46.472;30.760;2023-06-10T09:34:14;76367.78;;;-146.33
37414;BMP280;23279;46.472;30.760;2023-06-10T09:36:40;76359.66;;;-146.33
37414;BMP280;23279;46.472;30.760;2023-06-10T09:39:17;76375.94;;;-146.33
37414;BMP280;23279;46.472;30.760;2023-06-10T09:41:43;76388.13;;;-146.33
37414;BMP280;23279;46.472;30.760;2023-06-10T09:44:17;76377.97;;;-146.33
37414;BMP280;23279;46.472;30.760;2023-06-10T09:46:46;76361.69;;;-146.33
37414;BMP280;23279;46.472;30.760;2023-06-10T09:49:12;76357.63;;;-146.33
37414;BMP280;23279;46.472;30.760;2023-06-10T09:51:37;76343.41;;;-146.33
37414;BMP280;23279;46.472;30.760;2023-06-10T09:54:03;76333.22;;;-146.33
37414;BMP280;23279;46.472;30.760;2023-06-10T09:56:35;76321.03;;;-146.33
37414;BMP280;23279;46.472;30.760;2023-06-10T09:59:01;76316.97;;;-146.33
37414;BMP280;23279;46.472;30.760;2023-06-10T10:01:27;76339.31;;;-146.33
37414;BMP280;23279;46.472;30.760;2023-06-10T10:03:53;76339.31;;;-146.33
37414;BMP280;23279;46.472;30.760;2023-06-10T10:06:20;76319.00;;;-146.33
37414;BMP280;23279;46.472;30.760;2023-06-10T10:08:48;76257.97;;;-146.33
37414;BMP280;23279;46.472;30.760;2023-06-10T10:11:19;76209.16;;;-146.33
37414;BMP280;23279;46.472;30.760;2023-06-10T10:13:48;76188.84;;;-146.33
37414;BMP280;23279;46.472;30.760;2023-06-10T10:16:30;76170.53;;;-146.33
37414;BMP280;23279;46.472;30.760;2023-06-10T10:19:07;76180.69;;;-146.33
37414;BMP280;23279;46.472;30.760;2023-06-10T10:21:44;76164.44;;;-146.33
37414;BMP280;23279;46.472;30.760;2023-06-10T10:24:18;76144.09;;;-146.33
37414;BMP280;23279;46.472;30.760;2023-06-10T10:26:48;76131.91;;;-146.33
37414;BMP280;23279;46.472;30.760;2023-06-10T10:29:20;76113.59;;;-146.33
37414;BMP280;23279;46.472;30.760;2023-06-10T10:31:50;76111.56;;;-146.33
37414;BMP280;23279;46.472;30.760;2023-06-10T10:34:20;76140.03;;;-146.33
37414;BMP280;23279;46.472;30.760;2023-06-10T10:36:47;76140.03;;;-146.33
37414;BMP280;23279;46.472;30.760;2023-06-10T10:39:13;76127.81;;;-146.33
37414;BMP280;23279;46.472;30.760;2023-06-10T10:41:39;76117.66;;;-146.33
37414;BMP280;23279;46.472;30.760;2023-06-10T10:44:06;76164.44;;;-146.33
37414;BMP280;23279;46.472;30.760;2023-06-10T10:46:49;76168.50;;;-146.33
37414;BMP280;23279;46.472;30.760;2023-06-10T10:49:16;76172.56;;;-146.33
37414;BMP280;23279;46.472;30.760;2023-06-10T10:52:00;76150.19;;;-146.33
37414;BMP280;23279;46.472;30.760;2023-06-10T10:59:58;76142.06;;;-146.33
37414;BMP280;23279;46.472;30.760;2023-06-10T11:05:04;76135.97;;;-146.33
37414;BMP280;23279;46.472;30.760;2023-06-10T11:07:31;76117.66;;;-146.33
37414;BMP280;23279;46.472;30.760;2023-06-10T11:10:08;76105.47;;;-146.33
37414;BMP280;23279;46.472;30.760;2023-06-10T11:13:02;76099.34;;;-146.33
37414;BMP280;23279;46.472;30.760;2023-06-10T11:15:30;76093.25;;;-146.33
37414;BMP280;23279;46.472;30.760;2023-06-10T11:33:53;76091.22;;;-146.33
37414;BMP280;23279;46.472;30.760;2023-06-10T11:36:18;76115.63;;;-146.33
37414;BMP280;23279;46.472;30.760;2023-06-10T11:38:44;76095.28;;;-146.33
37414;BMP280;23279;46.472;30.760;2023-06-10T11:41:11;76042.41;;;-146.33
37414;BMP280;23279;46.472;30.760;2023-06-10T11:43:42;76046.50;;;-146.33
37414;BMP280;23279;46.472;30.760;2023-06-10T11:46:07;76046.50;;;-146.33
37414;BMP280;23279;46.472;30.760;2023-06-10T11:48:33;76042.41;;;-146.33
37414;BMP280;23279;46.472;30.760;2023-06-10T11:50:59;76052.59;;;-146.33
37414;BMP280;23279;46.472;30.760;2023-06-10T11:53:25;76115.63;;;-146.33
37414;BMP280;23279;46.472;30.760;2023-06-10T11:55:50;76083.09;;;-146.33
37414;BMP280;23279;46.472;30.760;2023-06-10T11:58:18;76013.94;;;-146.33
37414;BMP280;23279;46.472;30.760;2023-06-10T12:00:50;76018.03;;;-146.33
37414;BMP280;23279;46.472;30.760;2023-06-10T12:03:17;75997.69;;;-146.33
37414;BMP280;23279;46.472;30.760;2023-06-10T12:06:00;75989.56;;;-146.33
37414;BMP280;23279;46.472;30.760;2023-06-10T12:08:27;75997.69;;;-146.33
37414;BMP280;23279;46.472;30.760;2023-06-10T12:10:53;76018.03;;;-146.33
37414;BMP280;23279;46.472;30.760;2023-06-10T12:13:18;76026.16;;;-146.33
37414;BMP280;23279;46.472;30.760;2023-06-10T12:15:45;76030.22;;;-146.33
37414;BMP280;23279;46.472;30.760;2023-06-10T12:18:18;76026.16;;;-146.33
37414;BMP280;23279;46.472;30.760;2023-06-10T12:20:44;76018.03;;;-146.33
37414;BMP280;23279;46.472;30.760;2023-06-10T12:23:10;76020.06;;;-146.33
37414;BMP280;23279;46.472;30.760;2023-06-10T12:25:36;76046.50;;;-146.33
37414;BMP280;23279;46.472;30.760;2023-06-10T12:28:04;76028.19;;;-146.33
37414;BMP280;23279;46.472;30.760;2023-06-10T12:30:30;76107.50;;;-146.33
37414;BMP280;23279;46.472;30.760;2023-06-10T12:32:56;76054.63;;;-146.33
37414;BMP280;23279;46.472;30.760;2023-06-10T12:35:26;76087.16;;;-146.33
37414;BMP280;23279;46.472;30.760;2023-06-10T12:40:37;76099.34;;;-146.33
37414;BMP280;23279;46.472;30.760;2023-06-10T12:43:05;76123.75;;;-146.33
37414;BMP280;23279;46.472;30.760;2023-06-10T12:45:36;76148.16;;;-146.33
37414;BMP280;23279;46.472;30.760;2023-06-10T12:48:12;76135.97;;;-146.33
37414;BMP280;23279;46.472;30.760;2023-06-10T12:50:42;76158.31;;;-146.33
37414;BMP280;23279;46.472;30.760;2023-06-10T12:53:09;76133.94;;;-146.33
37414;BMP280;23279;46.472;30.760;2023-06-10T12:55:36;76140.03;;;-146.33
37414;BMP280;23279;46.472;30.760;2023-06-10T12:58:02;76140.03;;;-146.33
37414;BMP280;23279;46.472;30.760;2023-06-10T13:00:28;76178.66;;;-146.33
37414;BMP280;23279;46.472;30.760;2023-06-10T13:02:59;76176.63;;;-146.33
37414;BMP280;23279;46.472;30.760;2023-06-10T13:05:26;76178.66;;;-146.33
37414;BMP280;23279;46.472;30.760;2023-06-10T13:07:52;76186.81;;;-146.33
37414;BMP280;23279;46.472;30.760;2023-06-10T13:10:18;76192.91;;;-146.33
37414;BMP280;23279;46.472;30.760;2023-06-10T13:12:44;76192.91;;;-146.33
37414;BMP280;23279;46.472;30.760;2023-06-10T13:15:10;76192.91;;;-146.33
37414;BMP280;23279;46.472;30.760;2023-06-10T13:17:36;76203.06;;;-146.33
37414;BMP280;23279;46.472;30.760;2023-06-10T13:20:04;76168.50;;;-146.33
37414;BMP280;23279;46.472;30.760;2023-06-10T13:22:33;76166.47;;;-146.33
37414;BMP280;23279;46.472;30.760;2023-06-10T13:25:00;76158.31;;;-146.33
37414;BMP280;23279;46.472;30.760;2023-06-10T13:27:26;76170.53;;;-146.33
37414;BMP280;23279;46.472;30.760;2023-06-10T13:29:52;76174.59;;;-146.33
37414;BMP280;23279;46.472;30.760;2023-06-10T13:32:18;76194.94;;;-146.33
37414;BMP280;23279;46.472;30.760;2023-06-10T13:34:43;76219.34;;;-146.33
37414;BMP280;23279;46.472;30.760;2023-06-10T13:37:09;76284.41;;;-146.33
37414;BMP280;23279;46.472;30.760;2023-06-10T13:39:34;76274.25;;;-146.33
37414;BMP280;23279;46.472;30.760;2023-06-10T13:41:59;76306.78;;;-146.33
37414;BMP280;23279;46.472;30.760;2023-06-10T13:44:25;76319.00;;;-146.33
37414;BMP280;23279;46.472;30.760;2023-06-10T13:46:50;76302.72;;;-146.33
37414;BMP280;23279;46.472;30.760;2023-06-10T13:49:16;76329.16;;;-146.33
37414;BMP280;23279;46.472;30.760;2023-06-10T13:51:42;76314.91;;;-146.33
37414;BMP280;23279;46.472;30.760;2023-06-10T13:54:07;76302.72;;;-146.33
37414;BMP280;23279;46.472;30.760;2023-06-10T13:56:32;76347.47;;;-146.33
37414;BMP280;23279;46.472;30.760;2023-06-10T13:59:03;76371.88;;;-146.33
37414;BMP280;23279;46.472;30.760;2023-06-10T14:01:31;76382.03;;;-146.33
37414;BMP280;23279;46.472;30.760;2023-06-10T14:03:56;76355.59;;;-146.33